Time;durP1;ratioP1;P1;durP2;ratioP2;P2;SDS_P1;SDS_P2;PMS_P1;PMS_P2;Temp;Humidity;BMP_temperature;BMP_pressure;BME280_temperature;BME280_humidity;BME280_pressure;Samples;Min_cycle;Max_cycle;Signal;HPM_P1;HPM_P2
2022/08/05 00:01:27;;;;;;;15.65;9.93;;;;;;;20.96;78.26;94848.41;6302557;22;20175;-85
2022/08/05 00:03:53;;;;;;;18.80;9.40;;;;;;;20.92;78.77;94848.16;6302334;22;20168;-85
2022/08/05 00:06:20;;;;;;;14.95;9.27;;;;;;;20.97;77.73;94855.28;6303282;22;20160;-86
2022/08/05 00:08:47;;;;;;;21.30;9.85;;;;;;;21.01;76.75;94861.56;6303207;22;20547;-88
2022/08/05 00:11:15;;;;;;;17.08;9.40;;;;;;;21.02;76.35;94854.44;6303575;22;20170;-85
2022/08/05 00:13:44;;;;;;;15.98;9.90;;;;;;;20.83;79.27;94843.78;6302159;22;20634;-86
2022/08/05 00:16:13;;;;;;;13.88;9.45;;;;;;;20.98;79.16;94854.19;6303981;22;20198;-86
2022/08/05 00:18:43;;;;;;;15.45;8.88;;;;;;;20.93;78.77;94843.69;6303352;22;20175;-85
2022/08/05 00:21:10;;;;;;;18.92;9.48;;;;;;;20.93;77.52;94848.97;6303282;22;20161;-86
2022/08/05 00:23:37;;;;;;;15.85;9.68;;;;;;;20.82;77.50;94845.63;6304433;22;20520;-84
2022/08/05 00:26:05;;;;;;;17.00;8.40;;;;;;;20.74;76.32;94848.06;6309291;22;20805;-84
2022/08/05 00:28:32;;;;;;;17.15;8.20;;;;;;;20.64;76.51;94838.34;6305386;22;20533;-86
2022/08/05 00:30:59;;;;;;;11.30;8.05;;;;;;;20.49;77.21;94827.13;6306773;22;20164;-86
2022/08/05 00:33:26;;;;;;;11.07;7.70;;;;;;;20.55;77.44;94836.59;6306018;22;20214;-83
2022/08/05 00:35:55;;;;;;;9.45;8.05;;;;;;;20.48;76.92;94836.91;6304580;22;20199;-85
2022/08/05 00:38:22;;;;;;;14.20;7.97;;;;;;;20.45;76.27;94834.00;6305797;22;20172;-85
2022/08/05 00:40:51;;;;;;;9.63;7.25;;;;;;;20.43;75.87;94838.78;6321567;22;20168;-84
2022/08/05 00:43:19;;;;;;;12.00;7.57;;;;;;;20.35;76.33;94829.59;6315513;22;20172;-82
2022/08/05 00:45:46;;;;;;;11.95;7.15;;;;;;;20.33;76.58;94821.16;6302720;22;20195;-84
2022/08/05 00:48:15;;;;;;;10.77;7.20;;;;;;;20.40;76.85;94828.78;6304946;22;20179;-84
2022/08/05 00:50:45;;;;;;;13.25;7.30;;;;;;;20.47;76.32;94829.25;6308760;22;20168;-84
2022/08/05 00:53:14;;;;;;;10.95;7.20;;;;;;;20.53;74.94;94833.44;6306165;22;20171;-84
2022/08/05 00:55:41;;;;;;;8.77;7.38;;;;;;;20.61;75.25;94830.19;6304897;22;20274;-86
2022/08/05 00:58:08;;;;;;;11.80;7.80;;;;;;;20.60;75.79;94832.06;6304178;22;20248;-85
2022/08/05 01:00:35;;;;;;;9.38;7.40;;;;;;;20.52;76.95;94830.00;6304756;22;20179;-85
2022/08/05 01:03:02;;;;;;;14.88;7.80;;;;;;;20.48;77.92;94828.97;6304925;22;20165;-84
2022/08/05 01:05:29;;;;;;;12.88;7.35;;;;;;;20.41;78.92;94832.97;6305363;22;20161;-84
2022/08/05 01:07:56;;;;;;;14.38;7.55;;;;;;;20.34;79.51;94830.66;6304815;22;20176;-83
2022/08/05 01:10:30;;;;;;;9.70;7.25;;;;;;;20.29;79.64;94828.81;6305203;22;20148;-84
2022/08/05 01:13:06;;;;;;;8.98;7.60;;;;;;;20.21;78.81;94834.66;6305011;22;20167;-85
2022/08/05 01:15:39;;;;;;;13.80;8.50;;;;;;;20.14;77.96;94828.13;6304520;22;20176;-84
2022/08/05 01:18:13;;;;;;;11.85;7.25;;;;;;;20.18;79.96;94831.78;6304652;22;20175;-83
2022/08/05 01:20:50;;;;;;;12.35;7.85;;;;;;;20.11;79.88;94834.72;6305577;22;20156;-84
2022/08/05 01:23:29;;;;;;;10.43;7.43;;;;;;;20.01;79.60;94823.41;6305366;22;20163;-85
2022/08/05 01:26:20;;;;;;;10.13;7.30;;;;;;;20.06;80.87;94840.00;6304337;22;20153;-84
2022/08/05 01:28:54;;;;;;;10.88;7.47;;;;;;;20.01;80.45;94834.78;6305412;22;20164;-84
2022/08/05 01:31:27;;;;;;;12.65;7.03;;;;;;;20.02;79.54;94830.28;6304762;22;20157;-84
2022/08/05 01:34:01;;;;;;;10.65;7.20;;;;;;;20.15;79.60;94841.03;6304129;22;20159;-86
2022/08/05 01:36:34;;;;;;;8.95;7.18;;;;;;;20.12;79.49;94844.22;6304570;22;20177;-82
2022/08/05 01:39:01;;;;;;;7.80;7.00;;;;;;;20.08;78.89;94840.56;6303965;22;20579;-83
2022/08/05 01:41:33;;;;;;;9.00;7.18;;;;;;;20.06;78.79;94841.88;6303204;22;20164;-86
2022/08/05 01:44:02;;;;;;;9.10;6.68;;;;;;;20.03;78.74;94837.16;6303889;22;20226;-86
2022/08/05 01:46:31;;;;;;;9.85;6.88;;;;;;;19.96;79.52;94828.72;6303644;22;20168;-87
2022/08/05 01:49:00;;;;;;;8.73;6.63;;;;;;;19.87;79.62;94836.44;6303254;22;20191;-86
2022/08/05 01:51:31;;;;;;;9.48;7.28;;;;;;;19.85;80.37;94837.75;6303626;22;20210;-86
2022/08/05 01:53:59;;;;;;;8.82;7.07;;;;;;;19.83;80.04;94846.72;6304122;22;20628;-84
2022/08/05 01:56:30;;;;;;;10.00;6.68;;;;;;;19.80;80.71;94843.81;6303809;22;20569;-85
2022/08/05 01:58:59;;;;;;;9.27;6.65;;;;;;;19.75;81.53;94834.09;6304235;22;20157;-86
2022/08/05 02:01:28;;;;;;;13.30;7.10;;;;;;;19.74;81.44;94842.28;6301619;22;20160;-85
2022/08/05 02:03:57;;;;;;;8.80;6.88;;;;;;;19.67;82.14;94844.41;6302421;22;20157;-86
2022/08/05 02:06:24;;;;;;;13.63;7.22;;;;;;;19.63;82.44;94846.81;6306597;22;20160;-87
2022/08/05 02:08:51;;;;;;;9.68;7.07;;;;;;;19.65;82.35;94849.19;6306483;22;20250;-87
2022/08/05 02:11:19;;;;;;;10.73;6.97;;;;;;;19.66;81.98;94846.25;6306697;22;20171;-88
2022/08/05 02:13:53;;;;;;;9.23;7.20;;;;;;;19.74;81.72;94844.91;6305527;22;20214;-86
2022/08/05 02:16:23;;;;;;;11.60;7.10;;;;;;;19.68;81.43;94838.88;6303806;22;20182;-85
2022/08/05 02:18:56;;;;;;;10.82;7.20;;;;;;;19.68;80.81;94825.69;6303164;22;20156;-85
2022/08/05 02:21:30;;;;;;;9.75;7.40;;;;;;;19.73;80.57;94840.72;6303260;22;20174;-85
2022/08/05 02:24:02;;;;;;;14.25;7.47;;;;;;;19.69;79.81;94837.81;6303429;22;20195;-84
2022/08/05 02:26:38;;;;;;;15.32;7.88;;;;;;;19.60;79.97;94836.00;6303953;22;20156;-84
2022/08/05 02:29:08;;;;;;;10.80;7.28;;;;;;;19.56;80.03;94835.75;6303918;22;20152;-84
2022/08/05 02:31:36;;;;;;;9.55;6.90;;;;;;;19.56;80.26;94833.13;6302787;22;20169;-87
2022/08/05 02:34:07;;;;;;;13.43;7.78;;;;;;;19.62;80.10;94839.97;6304642;22;20160;-87
2022/08/05 02:36:36;;;;;;;10.98;7.25;;;;;;;19.63;79.23;94835.47;6305745;22;20176;-86
2022/08/05 02:39:08;;;;;;;8.75;7.65;;;;;;;19.59;78.63;94826.53;6307749;22;20160;-86
2022/08/05 02:41:36;;;;;;;10.55;7.40;;;;;;;19.57;79.00;94832.06;6310819;22;20211;-87
2022/08/05 02:44:06;;;;;;;12.50;7.90;;;;;;;19.48;80.20;94833.66;6303386;22;20175;-86
2022/08/05 02:46:33;;;;;;;10.40;7.57;;;;;;;19.49;80.75;94839.72;6304166;22;20149;-86
2022/08/05 02:49:01;;;;;;;10.93;7.20;;;;;;;19.47;81.13;94839.22;6305145;22;20171;-87
2022/08/05 02:51:30;;;;;;;11.82;7.43;;;;;;;19.42;81.33;94831.31;6304466;22;20165;-84
2022/08/05 02:53:58;;;;;;;14.43;7.45;;;;;;;19.40;81.41;94825.50;6305546;22;20593;-85
2022/08/05 02:56:26;;;;;;;13.05;7.40;;;;;;;19.37;80.17;94828.66;6301748;22;20188;-85
2022/08/05 02:58:54;;;;;;;10.77;6.95;;;;;;;19.36;79.16;94833.16;6303533;22;20200;-85
2022/08/05 03:01:23;;;;;;;9.48;7.57;;;;;;;19.27;79.90;94827.66;6303195;22;20200;-86
2022/08/05 03:03:54;;;;;;;15.23;7.30;;;;;;;19.26;80.99;94831.31;6301389;22;20172;-83
2022/08/05 03:06:22;;;;;;;12.45;7.50;;;;;;;19.25;81.35;94832.38;6301988;22;20148;-85
2022/08/05 03:08:53;;;;;;;10.10;8.07;;;;;;;19.27;81.76;94826.84;6303194;22;20192;-85
2022/08/05 03:11:21;;;;;;;10.82;7.53;;;;;;;19.27;82.34;94825.00;6302908;22;20156;-84
2022/08/05 03:13:49;;;;;;;16.05;7.80;;;;;;;19.30;82.14;94828.16;6302180;22;20179;-84
2022/08/05 03:16:16;;;;;;;16.10;8.15;;;;;;;19.20;82.50;94821.06;6306895;22;20192;-82
2022/08/05 03:18:43;;;;;;;15.73;8.77;;;;;;;19.21;82.93;94833.97;6305625;22;20160;-83
2022/08/05 03:21:10;;;;;;;17.73;8.10;;;;;;;19.20;82.29;94824.47;6309045;22;20168;-84
2022/08/05 03:23:41;;;;;;;14.70;7.95;;;;;;;19.26;82.27;94833.97;6309705;22;20922;-83
2022/08/05 03:26:09;;;;;;;11.75;8.48;;;;;;;19.15;82.35;94835.03;6309045;22;20156;-83
2022/08/05 03:28:37;;;;;;;14.23;8.05;;;;;;;19.14;83.31;94835.28;6307952;22;20175;-85
2022/08/05 03:31:05;;;;;;;12.40;7.68;;;;;;;18.97;83.49;94825.06;6308415;22;20172;-85
2022/08/05 03:33:32;;;;;;;11.68;7.07;;;;;;;19.03;83.59;94829.25;6307471;22;20165;-85
2022/08/05 03:35:59;;;;;;;15.23;9.13;;;;;;;18.98;84.19;94831.13;6307405;22;20517;-85
2022/08/05 03:38:27;;;;;;;15.10;8.35;;;;;;;18.94;84.00;94840.59;6307855;22;20453;-85
2022/08/05 03:40:54;;;;;;;15.63;8.15;;;;;;;18.91;84.00;94828.75;6308737;22;20163;-84
2022/08/05 03:43:24;;;;;;;16.58;8.50;;;;;;;18.81;84.48;94827.97;6309586;22;20713;-84
2022/08/05 03:45:52;;;;;;;12.00;7.88;;;;;;;18.87;84.41;94834.81;6307494;22;20649;-83
2022/08/05 03:48:19;;;;;;;9.82;7.65;;;;;;;18.82;84.43;94835.59;6307389;22;20168;-83
2022/08/05 03:50:52;;;;;;;12.32;7.65;;;;;;;18.82;84.56;94837.44;6313031;22;20220;-83
2022/08/05 03:53:26;;;;;;;11.57;8.20;;;;;;;18.81;84.49;94841.13;6310841;22;20163;-83
2022/08/05 03:56:00;;;;;;;12.10;8.15;;;;;;;18.75;84.34;94832.44;6309110;22;20176;-83
2022/08/05 03:58:32;;;;;;;11.40;8.07;;;;;;;18.83;83.89;94831.13;6308509;22;20547;-83
2022/08/05 04:01:02;;;;;;;15.07;8.15;;;;;;;18.98;82.85;94839.81;6314469;22;20603;-84
2022/08/05 04:03:34;;;;;;;16.60;8.35;;;;;;;19.04;82.44;94840.59;6309796;22;20183;-83
2022/08/05 04:06:02;;;;;;;10.73;7.72;;;;;;;19.12;81.56;94838.22;6308900;22;20164;-83
2022/08/05 04:08:29;;;;;;;12.05;8.13;;;;;;;19.20;80.79;94835.03;6309611;22;20200;-83
2022/08/05 04:10:57;;;;;;;14.65;8.40;;;;;;;19.02;80.62;94817.13;6310500;22;20156;-87
2022/08/05 04:13:25;;;;;;;17.50;9.85;;;;;;;19.17;80.61;94853.22;6308969;22;20174;-74
2022/08/05 04:15:53;;;;;;;15.57;11.27;;;;;;;19.21;80.54;94847.16;6297504;22;20192;-74
2022/08/05 04:18:23;;;;;;;14.80;10.63;;;;;;;19.19;80.47;94843.97;6298597;22;20168;-74
2022/08/05 04:20:54;;;;;;;26.23;10.85;;;;;;;19.23;80.79;94845.03;6299113;22;20168;-74
2022/08/05 04:23:23;;;;;;;15.48;10.10;;;;;;;19.27;80.65;94843.47;6298591;22;20152;-74
2022/08/05 04:25:50;;;;;;;16.10;9.13;;;;;;;19.33;79.25;94844.22;6297545;22;20168;-75
2022/08/05 04:28:17;;;;;;;12.68;8.35;;;;;;;19.36;77.33;94838.44;6298278;22;20172;-74
2022/08/05 04:30:43;;;;;;;8.73;7.68;;;;;;;19.36;77.70;94835.00;6298684;22;20164;-75
2022/08/05 04:33:12;;;;;;;11.52;8.13;;;;;;;19.33;76.49;94820.50;6297969;22;20168;-74
2022/08/05 04:35:40;;;;;;;13.27;8.40;;;;;;;19.27;77.00;94827.66;6296880;22;20182;-75
2022/08/05 04:38:07;;;;;;;16.90;8.60;;;;;;;19.33;77.70;94836.31;6298622;22;20168;-75
2022/08/05 04:40:35;;;;;;;10.75;7.72;;;;;;;19.33;78.48;94832.91;6299832;22;20168;-75
2022/08/05 04:43:02;;;;;;;12.68;7.30;;;;;;;19.32;77.88;94832.09;6299399;22;20207;-74
2022/08/05 04:45:29;;;;;;;9.27;6.47;;;;;;;19.36;77.99;94827.09;6298411;22;20623;-74
2022/08/05 04:48:03;;;;;;;10.05;7.13;;;;;;;19.48;77.24;94838.16;6298206;22;20165;-74
2022/08/05 04:50:31;;;;;;;10.57;6.75;;;;;;;19.53;76.76;94840.78;6298300;22;20717;-75
2022/08/05 04:52:58;;;;;;;12.07;6.50;;;;;;;19.60;76.46;94831.50;6298371;22;20173;-75
2022/08/05 04:55:25;;;;;;;7.25;6.45;;;;;;;19.55;75.57;94838.66;6298471;22;20631;-74
2022/08/05 04:57:52;;;;;;;7.47;6.68;;;;;;;19.61;75.34;94833.09;6297240;22;20799;-74
2022/08/05 05:00:19;;;;;;;7.32;6.47;;;;;;;19.63;75.41;94832.81;6298663;22;20200;-76
2022/08/05 05:02:46;;;;;;;9.75;6.90;;;;;;;19.61;75.68;94827.03;6299643;22;20225;-76
2022/08/05 05:05:13;;;;;;;8.50;7.22;;;;;;;19.55;75.83;94830.75;6299499;22;20172;-74
2022/08/05 05:07:41;;;;;;;8.15;6.70;;;;;;;19.60;76.72;94834.16;6297414;22;20168;-74
2022/08/05 05:10:08;;;;;;;10.77;6.90;;;;;;;19.62;76.84;94826.78;6113042;22;20258;-74
2022/08/05 05:12:35;;;;;;;10.13;7.18;;;;;;;19.68;76.75;94833.59;6113548;23;20176;-75
2022/08/05 05:15:02;;;;;;;8.60;6.97;;;;;;;19.75;77.05;94825.38;6115429;23;20175;-74
2022/08/05 05:17:29;;;;;;;9.25;7.47;;;;;;;19.78;76.45;94830.91;6114333;22;20196;-74
2022/08/05 05:19:55;;;;;;;10.40;7.28;;;;;;;19.81;76.38;94829.59;6112861;23;20184;-73
2022/08/05 05:22:22;;;;;;;8.60;7.00;;;;;;;19.85;76.82;94829.84;6081087;23;20173;-73
2022/08/05 05:24:50;;;;;;;12.32;8.30;;;;;;;19.89;76.21;94828.22;6083330;23;21273;-73
2022/08/05 05:27:17;;;;;;;14.90;7.78;;;;;;;19.90;75.96;94830.59;6094772;23;20233;-73
2022/08/05 05:29:44;;;;;;;9.55;7.40;;;;;;;19.90;75.16;94806.88;6110058;23;20179;-74
2022/08/05 05:32:11;;;;;;;11.93;6.93;;;;;;;20.00;76.17;94830.53;6109314;22;20172;-74
2022/08/05 05:34:38;;;;;;;13.50;7.25;;;;;;;20.13;75.52;94835.25;6111135;23;20201;-75
2022/08/05 05:37:04;;;;;;;9.15;7.10;;;;;;;20.28;74.59;94823.84;6110560;23;20207;-75
2022/08/05 05:39:31;;;;;;;11.95;7.22;;;;;;;20.32;73.94;94830.91;6109670;23;20173;-74
2022/08/05 05:41:59;;;;;;;9.70;7.25;;;;;;;20.40;73.15;94821.66;6110459;23;20227;-80
2022/08/05 05:44:26;;;;;;;11.07;7.53;;;;;;;20.47;73.57;94832.69;6113194;23;20169;-82
2022/08/05 05:46:53;;;;;;;9.30;7.32;;;;;;;20.51;73.16;94830.28;6111669;23;20169;-80
2022/08/05 05:49:20;;;;;;;9.43;7.63;;;;;;;20.53;72.56;94834.22;6110599;23;20932;-79
2022/08/05 05:51:47;;;;;;;13.45;7.55;;;;;;;20.50;73.10;94833.97;6108171;23;20895;-74
2022/08/05 05:54:14;;;;;;;10.60;7.20;;;;;;;20.49;73.27;94835.06;6110323;23;20180;-75
2022/08/05 05:56:41;;;;;;;11.13;7.75;;;;;;;20.56;73.06;94831.03;6110990;23;20211;-73
2022/08/05 05:59:15;;;;;;;15.30;8.15;;;;;;;20.67;72.74;94831.72;6111304;23;20183;-73
2022/08/05 06:01:44;;;;;;;13.57;7.95;;;;;;;20.64;72.57;94832.28;6109602;23;20163;-74
2022/08/05 06:04:12;;;;;;;11.95;8.02;;;;;;;20.69;72.97;94834.91;6109856;22;20202;-73
2022/08/05 06:06:41;;;;;;;12.35;8.07;;;;;;;20.68;72.98;94838.59;6111074;23;20187;-75
2022/08/05 06:09:08;;;;;;;12.65;7.97;;;;;;;20.72;73.09;94834.34;6218432;22;20200;-76
2022/08/05 06:11:35;;;;;;;13.52;7.85;;;;;;;20.74;73.12;94833.00;6295328;22;20586;-76
2022/08/05 06:14:02;;;;;;;9.20;7.47;;;;;;;20.80;72.73;94837.19;6295148;22;20172;-75
2022/08/05 06:16:30;;;;;;;11.80;7.72;;;;;;;21.12;71.41;94839.31;6296679;22;20918;-76
2022/08/05 06:18:57;;;;;;;14.48;7.45;;;;;;;21.26;70.56;94837.59;6296223;22;20646;-75
2022/08/05 06:21:24;;;;;;;9.77;7.57;;;;;;;21.33;70.21;94839.91;6296333;22;20168;-75
2022/08/05 06:23:50;;;;;;;13.52;7.22;;;;;;;21.41;69.79;94841.94;6294704;22;20173;-75
2022/08/05 06:26:18;;;;;;;14.90;7.70;;;;;;;21.49;69.53;94834.19;6295635;22;20183;-76
2022/08/05 06:28:45;;;;;;;9.63;7.80;;;;;;;21.44;69.13;94833.47;6296836;22;20168;-76
2022/08/05 06:31:11;;;;;;;14.70;7.78;;;;;;;21.47;69.09;94827.59;6297307;22;20175;-82
2022/08/05 06:33:40;;;;;;;13.68;7.50;;;;;;;21.65;69.30;94834.00;6296575;22;20169;-75
2022/08/05 06:36:08;;;;;;;11.98;7.47;;;;;;;21.74;69.44;94835.75;6294758;22;20183;-75
2022/08/05 06:38:35;;;;;;;13.43;7.47;;;;;;;21.81;68.61;94830.91;6295426;22;20235;-74
2022/08/05 06:41:02;;;;;;;9.20;6.95;;;;;;;21.94;67.58;94829.44;6295542;22;20200;-75
2022/08/05 06:43:28;;;;;;;14.20;7.07;;;;;;;22.08;67.47;94822.38;6295782;22;20208;-75
2022/08/05 06:45:55;;;;;;;10.48;7.18;;;;;;;22.16;67.20;94832.34;6294287;22;20694;-75
2022/08/05 06:48:22;;;;;;;12.80;7.93;;;;;;;22.31;65.46;94832.13;6295407;22;20997;-76
2022/08/05 06:50:50;;;;;;;12.10;8.10;;;;;;;22.37;65.35;94823.03;6296285;22;20164;-76
2022/08/05 06:53:17;;;;;;;8.82;7.13;;;;;;;22.42;64.67;94828.25;6296418;22;20168;-76
2022/08/05 06:55:44;;;;;;;8.50;7.25;;;;;;;22.63;63.15;94823.44;6293737;22;20168;-76
2022/08/05 06:58:11;;;;;;;9.68;7.20;;;;;;;22.76;62.21;94832.56;6295163;22;20200;-75
2022/08/05 07:00:37;;;;;;;10.10;7.57;;;;;;;22.89;61.91;94821.97;6295378;22;20916;-75
2022/08/05 07:03:04;;;;;;;9.63;7.00;;;;;;;22.93;62.06;94824.84;6295166;22;20241;-76
2022/08/05 07:05:31;;;;;;;11.13;7.30;;;;;;;23.01;62.30;94822.31;6294729;22;20168;-75
2022/08/05 07:07:59;;;;;;;10.40;8.02;;;;;;;23.02;61.44;94828.41;6292810;22;20176;-75
2022/08/05 07:10:26;;;;;;;10.13;7.40;;;;;;;23.06;61.74;94829.38;6273991;22;20196;-76
2022/08/05 07:18:23;;;;;;;10.38;7.30;;;;;;;23.32;59.86;94825.22;6294446;22;20851;-75
2022/08/05 07:20:50;;;;;;;10.48;7.53;;;;;;;23.40;59.62;94832.53;6295479;22;20507;-75
2022/08/05 07:23:18;;;;;;;13.23;7.50;;;;;;;23.47;58.49;94834.78;6294613;22;20172;-76
2022/08/05 07:25:45;;;;;;;15.27;8.20;;;;;;;23.52;58.27;94837.38;6295585;22;20483;-82
2022/08/05 07:28:11;;;;;;;11.57;7.78;;;;;;;23.53;57.83;94831.75;6297684;22;20251;-79
2022/08/05 07:30:39;;;;;;;14.05;7.30;;;;;;;23.51;58.49;94825.97;6300755;22;20541;-82
2022/08/05 07:33:07;;;;;;;11.82;7.20;;;;;;;23.74;58.82;94829.50;6300046;22;20171;-78
2022/08/05 07:35:34;;;;;;;9.25;6.50;;;;;;;24.04;58.07;94828.09;6295867;22;20669;-78
2022/08/05 07:38:01;;;;;;;15.38;7.25;;;;;;;24.20;56.96;94827.50;6296159;22;20199;-79
2022/08/05 07:40:29;;;;;;;10.43;7.50;;;;;;;24.28;55.36;94826.81;6299162;22;20183;-83
2022/08/05 07:42:56;;;;;;;11.23;7.43;;;;;;;24.25;54.86;94824.75;6296742;22;20171;-80
2022/08/05 07:45:23;;;;;;;15.35;7.70;;;;;;;24.18;55.84;94816.38;6300775;22;20169;-79
2022/08/05 07:47:50;;;;;;;11.82;7.85;;;;;;;24.32;54.39;94831.50;6298934;22;20175;-78
2022/08/05 07:50:17;;;;;;;18.33;7.13;;;;;;;24.20;54.85;94824.06;6299700;22;20168;-80
2022/08/05 07:52:45;;;;;;;9.85;7.50;;;;;;;24.14;54.74;94825.25;6300388;22;20168;-78
2022/08/05 07:55:12;;;;;;;11.60;8.32;;;;;;;24.16;55.48;94828.38;6303148;22;20252;-80
2022/08/05 07:57:40;;;;;;;13.15;8.35;;;;;;;24.25;55.58;94823.94;6304044;22;20196;-80
2022/08/05 08:00:08;;;;;;;11.30;8.07;;;;;;;24.25;54.82;94813.31;6304757;22;20229;-80
2022/08/05 08:02:35;;;;;;;9.15;7.03;;;;;;;24.46;54.84;94827.75;6304505;22;20171;-80
2022/08/05 08:05:02;;;;;;;10.43;7.30;;;;;;;24.59;55.07;94818.91;6305231;22;20172;-80
2022/08/05 08:07:29;;;;;;;15.60;7.13;;;;;;;24.79;54.56;94823.00;6304704;22;20160;-79
2022/08/05 08:09:56;;;;;;;14.60;7.65;;;;;;;24.95;54.83;94824.22;6300633;22;20260;-79
2022/08/05 08:12:23;;;;;;;10.18;8.45;;;;;;;25.15;53.60;94823.72;6298096;22;20171;-79
2022/08/05 08:14:51;;;;;;;14.82;7.65;;;;;;;25.26;52.51;94822.34;6298151;22;20191;-80
2022/08/05 08:17:18;;;;;;;11.38;7.50;;;;;;;25.30;52.23;94825.19;6297538;22;20200;-80
2022/08/05 08:19:46;;;;;;;11.88;7.32;;;;;;;25.36;52.38;94823.97;6296170;22;20183;-79
2022/08/05 08:22:13;;;;;;;12.35;7.57;;;;;;;25.42;52.51;94815.53;6294899;22;20164;-80
2022/08/05 08:24:40;;;;;;;16.17;7.00;;;;;;;25.56;52.96;94820.81;6297573;22;20165;-81
2022/08/05 08:27:07;;;;;;;18.60;7.50;;;;;;;25.68;52.85;94807.69;6298083;22;20168;-79
2022/08/05 08:29:34;;;;;;;14.18;7.10;;;;;;;25.87;52.25;94812.75;6298294;22;20168;-79
2022/08/05 08:32:10;;;;;;;10.25;7.07;;;;;;;26.03;51.61;94821.09;6297183;22;20661;-79
2022/08/05 08:34:37;;;;;;;10.82;6.95;;;;;;;26.19;51.66;94814.25;6298285;22;20498;-78
2022/08/05 08:37:04;;;;;;;9.63;6.60;;;;;;;26.30;50.65;94810.97;6296981;22;20191;-78
2022/08/05 08:39:30;;;;;;;7.60;5.78;;;;;;;26.42;49.16;94810.38;6297351;22;20642;-79
2022/08/05 08:41:59;;;;;;;13.73;5.88;;;;;;;26.46;47.60;94809.41;6296084;22;20165;-79
2022/08/05 08:44:29;;;;;;;7.70;5.65;;;;;;;26.54;47.42;94813.19;6299527;22;20168;-77
2022/08/05 08:46:56;;;;;;;9.27;5.70;;;;;;;26.52;46.19;94803.94;6298694;22;20172;-76
2022/08/05 08:49:25;;;;;;;10.27;6.40;;;;;;;26.67;45.26;94811.44;6299067;22;20243;-79
2022/08/05 08:51:59;;;;;;;8.70;6.05;;;;;;;26.70;45.98;94813.47;6299311;22;20179;-80
2022/08/05 08:54:26;;;;;;;10.52;5.85;;;;;;;26.75;45.21;94818.69;6301109;22;20156;-80
2022/08/05 08:56:53;;;;;;;11.80;5.68;;;;;;;26.80;46.16;94808.66;6300664;22;20168;-78
2022/08/05 08:59:20;;;;;;;10.10;6.13;;;;;;;26.89;46.70;94811.31;6300416;22;20168;-80
2022/08/05 09:01:47;;;;;;;9.13;5.35;;;;;;;26.98;46.48;94804.84;6297887;22;20172;-80
2022/08/05 09:04:14;;;;;;;9.52;5.28;;;;;;;27.03;45.39;94798.56;6299571;22;20168;-80
2022/08/05 09:06:42;;;;;;;6.50;5.28;;;;;;;27.22;44.33;94801.66;6298550;22;20168;-78
2022/08/05 09:09:09;;;;;;;8.73;5.10;;;;;;;27.37;44.78;94795.81;6297522;22;20195;-79
2022/08/05 09:11:36;;;;;;;6.93;5.10;;;;;;;27.48;43.66;94796.25;6298277;22;20168;-77
2022/08/05 09:14:04;;;;;;;6.13;4.95;;;;;;;27.53;42.53;94794.19;6298207;22;20172;-77
2022/08/05 09:16:31;;;;;;;13.25;5.22;;;;;;;27.59;42.41;94784.88;6298385;22;20168;-77
2022/08/05 09:18:58;;;;;;;10.68;4.95;;;;;;;27.58;41.13;94779.88;6298381;22;20206;-77
2022/08/05 09:21:27;;;;;;;9.93;5.72;;;;;;;27.65;40.80;94780.16;6298296;22;20165;-78
2022/08/05 09:24:07;;;;;;;7.25;4.97;;;;;;;27.60;40.55;94781.13;6296584;22;20175;-77
2022/08/05 09:26:34;;;;;;;10.18;5.35;;;;;;;27.73;42.02;94776.69;6298061;22;20167;-78
2022/08/05 09:29:04;;;;;;;7.70;4.97;;;;;;;28.05;41.42;94768.00;6297452;22;20912;-77
2022/08/05 09:31:31;;;;;;;6.88;4.28;;;;;;;28.28;41.42;94776.50;6297542;22;20164;-78
2022/08/05 09:34:01;;;;;;;7.53;4.25;;;;;;;28.45;40.70;94778.25;6296384;22;20184;-78
2022/08/05 09:36:39;;;;;;;6.07;4.22;;;;;;;28.53;39.51;94774.72;6298370;22;20569;-78
2022/08/05 09:39:09;;;;;;;4.88;3.72;;;;;;;28.53;39.42;94777.41;6295212;22;20176;-80
2022/08/05 09:41:55;;;;;;;6.57;4.43;;;;;;;28.62;39.87;94772.75;6296127;22;20160;-77
2022/08/05 09:44:39;;;;;;;5.57;4.38;;;;;;;28.71;39.73;94768.16;6297628;22;20190;-78
2022/08/05 09:47:11;;;;;;;6.00;4.20;;;;;;;28.80;38.95;94763.50;6301449;22;20160;-79
2022/08/05 09:49:42;;;;;;;5.57;4.05;;;;;;;28.90;38.39;94763.06;6301139;22;20489;-78
2022/08/05 09:52:26;;;;;;;10.90;4.60;;;;;;;29.03;37.55;94771.94;6298063;22;20528;-77
2022/08/05 09:54:57;;;;;;;4.60;3.70;;;;;;;29.04;36.75;94768.91;6300643;22;20203;-77
2022/08/05 09:57:38;;;;;;;4.82;3.90;;;;;;;29.01;37.20;94750.03;6299999;22;20523;-76
2022/08/05 10:00:11;;;;;;;5.63;4.28;;;;;;;29.17;38.17;94751.78;6298383;22;20148;-77
2022/08/05 10:02:41;;;;;;;4.57;4.00;;;;;;;29.31;38.65;94756.06;6301034;22;20168;-78
2022/08/05 10:05:11;;;;;;;6.47;4.18;;;;;;;29.50;36.41;94748.25;6299314;22;20164;-77
2022/08/05 10:07:51;;;;;;;9.60;4.53;;;;;;;29.72;37.75;94748.59;6299506;22;20218;-78
2022/08/05 10:10:21;;;;;;;5.07;4.05;;;;;;;29.89;36.87;94749.50;6299618;22;20163;-78
2022/08/05 10:12:49;;;;;;;6.82;4.30;;;;;;;29.93;36.91;94743.09;6299423;22;20156;-78
2022/08/05 10:15:19;;;;;;;10.35;4.18;;;;;;;30.03;36.64;94739.97;6299827;22;20164;-79
2022/08/05 10:18:07;;;;;;;4.50;4.10;;;;;;;30.00;36.98;94745.22;6298105;22;20192;-77
2022/08/05 10:20:38;;;;;;;6.65;4.38;;;;;;;30.09;35.98;94741.31;6299301;22;20191;-77
2022/08/05 10:23:05;;;;;;;6.57;4.00;;;;;;;30.21;36.10;94741.28;6299274;22;20179;-79
2022/08/05 10:25:34;;;;;;;6.00;4.30;;;;;;;30.40;36.20;94738.00;6299177;22;20176;-78
2022/08/05 10:28:01;;;;;;;4.45;4.03;;;;;;;30.38;35.25;94734.09;6298391;22;20165;-77
2022/08/05 10:30:29;;;;;;;6.85;4.07;;;;;;;30.40;35.56;94739.91;6301184;22;20183;-78
2022/08/05 10:32:57;;;;;;;10.00;4.57;;;;;;;30.50;35.38;94745.59;6299764;22;21141;-78
2022/08/05 10:35:24;;;;;;;4.50;4.10;;;;;;;30.55;34.86;94734.59;6299985;22;20168;-79
2022/08/05 10:37:53;;;;;;;10.63;4.00;;;;;;;30.70;34.49;94736.56;6297360;22;20674;-78
2022/08/05 10:40:28;;;;;;;9.55;4.13;;;;;;;30.95;34.35;94733.75;6299404;22;20470;-78
2022/08/05 10:43:14;;;;;;;7.75;4.43;;;;;;;31.18;34.55;94740.91;6299373;22;20155;-78
2022/08/05 10:45:41;;;;;;;7.68;4.22;;;;;;;31.05;34.12;94739.44;6298278;22;20167;-77
2022/08/05 10:48:29;;;;;;;6.72;4.28;;;;;;;31.08;33.31;94730.69;6297990;22;20172;-78
2022/08/05 10:51:02;;;;;;;8.10;4.15;;;;;;;31.06;33.74;94730.22;6289066;22;20199;-77
2022/08/05 10:53:54;;;;;;;5.57;4.65;;;;;;;30.96;33.56;94722.69;6297252;22;20168;-76
2022/08/05 10:56:23;;;;;;;8.43;4.35;;;;;;;31.12;33.92;94718.09;6291471;22;20172;-77
2022/08/05 10:59:07;;;;;;;4.80;4.30;;;;;;;31.02;33.54;94723.22;6298659;22;20203;-76
2022/08/05 11:01:36;;;;;;;6.18;4.25;;;;;;;31.18;33.40;94722.09;6293960;22;20171;-78
2022/08/05 11:04:08;;;;;;;4.80;4.30;;;;;;;31.52;33.33;94717.16;6296424;22;20175;-77
2022/08/05 11:06:55;;;;;;;5.18;4.07;;;;;;;31.81;32.02;94717.47;6298988;22;20156;-78
2022/08/05 11:09:23;;;;;;;9.85;4.03;;;;;;;31.98;32.00;94709.00;6298618;22;20214;-78
2022/08/05 11:11:51;;;;;;;7.95;4.15;;;;;;;32.20;32.67;94709.50;6297167;22;20172;-79
2022/08/05 11:14:28;;;;;;;8.07;4.22;;;;;;;32.12;31.80;94718.56;6298821;22;20270;-79
2022/08/05 11:17:29;;;;;;;6.60;4.13;;;;;;;32.00;31.80;94722.13;6298216;22;20235;-78
2022/08/05 11:19:57;;;;;;;9.13;4.97;;;;;;;31.92;31.79;94712.34;6298253;22;20234;-79
2022/08/05 11:22:42;;;;;;;9.07;4.50;;;;;;;31.85;32.16;94712.97;6299186;22;20190;-76
2022/08/05 11:25:28;;;;;;;6.18;4.05;;;;;;;31.72;32.34;94711.50;6299826;22;20164;-77
2022/08/05 11:27:56;;;;;;;5.47;4.97;;;;;;;31.60;32.50;94708.16;6297633;22;20164;-76
2022/08/05 11:30:24;;;;;;;6.63;4.68;;;;;;;31.68;32.15;94697.22;6298920;22;20179;-77
2022/08/05 11:32:51;;;;;;;9.80;4.93;;;;;;;32.13;31.03;94704.72;6298822;22;20176;-75
2022/08/05 11:35:52;;;;;;;15.20;4.70;;;;;;;32.42;30.35;94703.41;6298016;22;20164;-77
2022/08/05 11:38:19;;;;;;;4.85;4.22;;;;;;;32.74;30.08;94696.75;6297756;22;20195;-77
2022/08/05 11:40:57;;;;;;;8.85;4.50;;;;;;;32.76;30.09;94701.75;6298490;22;20168;-77
2022/08/05 11:43:24;;;;;;;6.65;4.10;;;;;;;33.05;30.58;94701.91;6299013;22;20168;-83
2022/08/05 11:45:53;;;;;;;4.65;4.15;;;;;;;33.29;30.28;94689.25;6295923;22;20733;-77